sensor_id;sensor_type;location;lat;lon;timestamp;temperature;humidity
9668;DHT22;4872;48.316;10.650;2022-10-18T04:12:53;11.80;99.90
9668;DHT22;4872;48.316;10.650;2022-10-18T04:15:20;11.80;99.90
9668;DHT22;4872;48.316;10.650;2022-10-18T04:17:47;11.80;99.90
9668;DHT22;4872;48.316;10.650;2022-10-18T04:20:14;11.80;99.90
9668;DHT22;4872;48.316;10.650;2022-10-18T04:22:41;11.80;99.90
9668;DHT22;4872;48.316;10.650;2022-10-18T04:25:08;11.70;99.90
9668;DHT22;4872;48.316;10.650;2022-10-18T04:27:34;11.90;99.90
9668;DHT22;4872;48.316;10.650;2022-10-18T04:30:03;11.90;99.90
9668;DHT22;4872;48.316;10.650;2022-10-18T04:32:30;11.90;99.90
9668;DHT22;4872;48.316;10.650;2022-10-18T04:34:57;11.90;99.90
9668;DHT22;4872;48.316;10.650;2022-10-18T04:37:24;11.90;99.90
9668;DHT22;4872;48.316;10.650;2022-10-18T04:39:50;11.90;99.90
9668;DHT22;4872;48.316;10.650;2022-10-18T04:42:17;11.90;99.90
9668;DHT22;4872;48.316;10.650;2022-10-18T04:44:44;11.90;99.90
9668;DHT22;4872;48.316;10.650;2022-10-18T04:47:12;12.00;99.90
9668;DHT22;4872;48.316;10.650;2022-10-18T04:49:39;11.90;99.90
9668;DHT22;4872;48.316;10.650;2022-10-18T04:52:06;12.00;99.90
9668;DHT22;4872;48.316;10.650;2022-10-18T04:54:33;11.90;99.90
9668;DHT22;4872;48.316;10.650;2022-10-18T04:57:00;12.00;99.90
9668;DHT22;4872;48.316;10.650;2022-10-18T04:59:26;11.90;99.90
9668;DHT22;4872;48.316;10.650;2022-10-18T05:01:53;12.00;99.90
9668;DHT22;4872;48.316;10.650;2022-10-18T05:04:21;12.00;99.90
9668;DHT22;4872;48.316;10.650;2022-10-18T05:06:48;12.00;99.90
9668;DHT22;4872;48.316;10.650;2022-10-18T05:09:15;12.00;99.90
9668;DHT22;4872;48.316;10.650;2022-10-18T05:11:42;12.10;99.90
9668;DHT22;4872;48.316;10.650;2022-10-18T05:14:08;12.10;99.90
9668;DHT22;4872;48.316;10.650;2022-10-18T05:16:35;12.10;99.90
9668;DHT22;4872;48.316;10.650;2022-10-18T05:19:04;12.10;99.90
9668;DHT22;4872;48.316;10.650;2022-10-18T05:21:32;12.10;99.90
9668;DHT22;4872;48.316;10.650;2022-10-18T05:23:59;12.10;99.90
9668;DHT22;4872;48.316;10.650;2022-10-18T05:26:26;12.10;99.90
9668;DHT22;4872;48.316;10.650;2022-10-18T05:28:53;12.10;99.90
9668;DHT22;4872;48.316;10.650;2022-10-18T05:31:19;12.30;99.90
9668;DHT22;4872;48.316;10.650;2022-10-18T05:33:46;12.30;99.90
9668;DHT22;4872;48.316;10.650;2022-10-18T05:36:13;12.30;99.90
9668;DHT22;4872;48.316;10.650;2022-10-18T05:38:42;12.30;99.90
9668;DHT22;4872;48.316;10.650;2022-10-18T05:41:10;12.30;99.90
9668;DHT22;4872;48.316;10.650;2022-10-18T05:43:38;12.30;99.90
9668;DHT22;4872;48.316;10.650;2022-10-18T05:46:05;12.40;99.90
9668;DHT22;4872;48.316;10.650;2022-10-18T05:48:33;12.40;99.90
9668;DHT22;4872;48.316;10.650;2022-10-18T05:51:00;12.40;99.90
9668;DHT22;4872;48.316;10.650;2022-10-18T05:53:27;12.40;99.90
9668;DHT22;4872;48.316;10.650;2022-10-18T05:55:59;12.40;99.90
9668;DHT22;4872;48.316;10.650;2022-10-18T05:58:25;12.50;99.90
9668;DHT22;4872;48.316;10.650;2022-10-18T06:00:52;12.60;99.90
9668;DHT22;4872;48.316;10.650;2022-10-18T06:03:19;12.50;99.90
9668;DHT22;4872;48.316;10.650;2022-10-18T06:05:46;12.30;99.90
9668;DHT22;4872;48.316;10.650;2022-10-18T06:08:12;12.50;99.90
9668;DHT22;4872;48.316;10.650;2022-10-18T06:10:39;12.50;99.90
9668;DHT22;4872;48.316;10.650;2022-10-18T06:13:07;12.50;99.90
9668;DHT22;4872;48.316;10.650;2022-10-18T06:15:34;12.60;99.90
9668;DHT22;4872;48.316;10.650;2022-10-18T06:18:01;12.60;99.90
9668;DHT22;4872;48.316;10.650;2022-10-18T06:20:27;12.60;99.90
9668;DHT22;4872;48.316;10.650;2022-10-18T06:22:54;12.50;99.90
9668;DHT22;4872;48.316;10.650;2022-10-18T06:25:21;12.50;99.90
9668;DHT22;4872;48.316;10.650;2022-10-18T06:27:48;12.50;99.90
9668;DHT22;4872;48.316;10.650;2022-10-18T06:30:16;12.60;99.90
9668;DHT22;4872;48.316;10.650;2022-10-18T06:32:43;12.60;99.90
9668;DHT22;4872;48.316;10.650;2022-10-18T06:35:09;12.70;99.90
9668;DHT22;4872;48.316;10.650;2022-10-18T06:37:36;12.70;99.90
9668;DHT22;4872;48.316;10.650;2022-10-18T06:40:04;12.80;99.90
9668;DHT22;4872;48.316;10.650;2022-10-18T06:42:31;12.90;99.90
9668;DHT22;4872;48.316;10.650;2022-10-18T06:44:58;12.90;99.90
9668;DHT22;4872;48.316;10.650;2022-10-18T06:47:27;12.90;99.90
9668;DHT22;4872;48.316;10.650;2022-10-18T06:49:54;13.00;99.90
9668;DHT22;4872;48.316;10.650;2022-10-18T06:52:20;13.10;99.90
9668;DHT22;4872;48.316;10.650;2022-10-18T06:54:50;13.10;99.90
9668;DHT22;4872;48.316;10.650;2022-10-18T06:57:17;13.10;99.90
9668;DHT22;4872;48.316;10.650;2022-10-18T06:59:44;13.10;99.90
9668;DHT22;4872;48.316;10.650;2022-10-18T07:02:14;13.20;99.90
9668;DHT22;4872;48.316;10.650;2022-10-18T07:04:43;13.20;99.90
9668;DHT22;4872;48.316;10.650;2022-10-18T07:07:09;13.20;99.90
9668;DHT22;4872;48.316;10.650;2022-10-18T07:09:36;13.30;99.90
9668;DHT22;4872;48.316;10.650;2022-10-18T07:12:03;13.30;99.90
9668;DHT22;4872;48.316;10.650;2022-10-18T07:14:30;13.40;99.90
9668;DHT22;4872;48.316;10.650;2022-10-18T07:16:58;13.50;99.90
9668;DHT22;4872;48.316;10.650;2022-10-18T07:19:25;13.50;99.90
9668;DHT22;4872;48.316;10.650;2022-10-18T07:21:53;13.60;99.90
9668;DHT22;4872;48.316;10.650;2022-10-18T07:24:20;13.70;99.90
9668;DHT22;4872;48.316;10.650;2022-10-18T07:26:47;13.70;99.90
9668;DHT22;4872;48.316;10.650;2022-10-18T07:29:14;13.80;99.90
9668;DHT22;4872;48.316;10.650;2022-10-18T07:31:41;13.80;99.90
9668;DHT22;4872;48.316;10.650;2022-10-18T07:34:10;13.90;99.90
9668;DHT22;4872;48.316;10.650;2022-10-18T07:36:37;14.00;99.90
9668;DHT22;4872;48.316;10.650;2022-10-18T07:39:06;14.10;99.90
9668;DHT22;4872;48.316;10.650;2022-10-18T07:41:33;14.00;99.90
9668;DHT22;4872;48.316;10.650;2022-10-18T07:44:02;14.10;99.90
9668;DHT22;4872;48.316;10.650;2022-10-18T07:46:29;14.30;99.90
9668;DHT22;4872;48.316;10.650;2022-10-18T07:48:56;14.20;99.90
9668;DHT22;4872;48.316;10.650;2022-10-18T07:51:24;14.30;99.90
9668;DHT22;4872;48.316;10.650;2022-10-18T07:53:52;14.40;99.90
9668;DHT22;4872;48.316;10.650;2022-10-18T07:56:21;14.40;99.90
9668;DHT22;4872;48.316;10.650;2022-10-18T07:58:49;14.40;99.90
9668;DHT22;4872;48.316;10.650;2022-10-18T08:01:17;14.40;99.90
9668;DHT22;4872;48.316;10.650;2022-10-18T08:03:45;14.40;99.90
9668;DHT22;4872;48.316;10.650;2022-10-18T08:06:14;14.40;99.90
9668;DHT22;4872;48.316;10.650;2022-10-18T08:08:41;14.40;99.90
9668;DHT22;4872;48.316;10.650;2022-10-18T08:11:10;14.40;99.90
9668;DHT22;4872;48.316;10.650;2022-10-18T08:13:39;14.50;99.90
9668;DHT22;4872;48.316;10.650;2022-10-18T08:16:07;14.60;99.90
9668;DHT22;4872;48.316;10.650;2022-10-18T08:18:35;14.60;99.90
9668;DHT22;4872;48.316;10.650;2022-10-18T08:21:02;14.70;99.90
9668;DHT22;4872;48.316;10.650;2022-10-18T08:23:30;14.80;99.90
9668;DHT22;4872;48.316;10.650;2022-10-18T08:26:00;14.90;99.90
9668;DHT22;4872;48.316;10.650;2022-10-18T08:28:26;15.00;99.90
9668;DHT22;4872;48.316;10.650;2022-10-18T08:30:55;15.10;99.90
9668;DHT22;4872;48.316;10.650;2022-10-18T08:33:21;15.10;99.90
9668;DHT22;4872;48.316;10.650;2022-10-18T08:35:55;15.30;99.90
9668;DHT22;4872;48.316;10.650;2022-10-18T08:38:21;15.50;99.90
9668;DHT22;4872;48.316;10.650;2022-10-18T08:40:48;15.50;99.90
9668;DHT22;4872;48.316;10.650;2022-10-18T08:43:23;15.70;99.90
9668;DHT22;4872;48.316;10.650;2022-10-18T08:45:55;15.90;99.90
9668;DHT22;4872;48.316;10.650;2022-10-18T08:48:30;16.00;99.90
9668;DHT22;4872;48.316;10.650;2022-10-18T08:50:58;16.10;99.90
9668;DHT22;4872;48.316;10.650;2022-10-18T08:53:29;16.40;99.90
9668;DHT22;4872;48.316;10.650;2022-10-18T08:56:01;16.60;99.90
9668;DHT22;4872;48.316;10.650;2022-10-18T08:58:30;16.80;99.90
9668;DHT22;4872;48.316;10.650;2022-10-18T09:01:04;17.10;99.90
9668;DHT22;4872;48.316;10.650;2022-10-18T09:03:47;17.30;99.90
9668;DHT22;4872;48.316;10.650;2022-10-18T09:06:22;17.40;99.90
9668;DHT22;4872;48.316;10.650;2022-10-18T09:09:10;17.60;99.90
9668;DHT22;4872;48.316;10.650;2022-10-18T09:11:46;17.70;99.90
9668;DHT22;4872;48.316;10.650;2022-10-18T09:14:41;17.80;99.90
9668;DHT22;4872;48.316;10.650;2022-10-18T09:17:23;17.90;99.90
9668;DHT22;4872;48.316;10.650;2022-10-18T09:20:10;17.90;99.90
9668;DHT22;4872;48.316;10.650;2022-10-18T09:22:48;18.00;99.90
9668;DHT22;4872;48.316;10.650;2022-10-18T09:25:18;18.20;99.90
9668;DHT22;4872;48.316;10.650;2022-10-18T09:27:51;18.20;99.90
9668;DHT22;4872;48.316;10.650;2022-10-18T09:30:28;18.20;99.90
9668;DHT22;4872;48.316;10.650;2022-10-18T09:33:13;18.40;99.90
9668;DHT22;4872;48.316;10.650;2022-10-18T09:35:46;18.40;99.90
9668;DHT22;4872;48.316;10.650;2022-10-18T09:38:18;18.40;99.90
9668;DHT22;4872;48.316;10.650;2022-10-18T09:40:50;18.50;99.90
9668;DHT22;4872;48.316;10.650;2022-10-18T09:43:21;18.60;99.90
9668;DHT22;4872;48.316;10.650;2022-10-18T09:45:51;18.70;99.90
9668;DHT22;4872;48.316;10.650;2022-10-18T09:48:22;18.70;99.90
9668;DHT22;4872;48.316;10.650;2022-10-18T09:50:56;18.80;99.90
9668;DHT22;4872;48.316;10.650;2022-10-18T09:53:29;18.90;99.90
9668;DHT22;4872;48.316;10.650;2022-10-18T09:56:02;18.90;99.90
9668;DHT22;4872;48.316;10.650;2022-10-18T09:58:39;19.00;99.90
9668;DHT22;4872;48.316;10.650;2022-10-18T10:01:07;19.10;99.90
9668;DHT22;4872;48.316;10.650;2022-10-18T10:03:37;19.10;99.90
9668;DHT22;4872;48.316;10.650;2022-10-18T10:06:23;19.20;99.90
9668;DHT22;4872;48.316;10.650;2022-10-18T10:08:55;19.30;99.90
9668;DHT22;4872;48.316;10.650;2022-10-18T10:11:34;19.40;99.90
9668;DHT22;4872;48.316;10.650;2022-10-18T10:14:12;19.40;99.90
9668;DHT22;4872;48.316;10.650;2022-10-18T10:16:47;19.50;99.90
9668;DHT22;4872;48.316;10.650;2022-10-18T10:19:26;19.50;99.90
9668;DHT22;4872;48.316;10.650;2022-10-18T10:21:57;19.60;99.90
9668;DHT22;4872;48.316;10.650;2022-10-18T10:24:28;19.60;99.90
9668;DHT22;4872;48.316;10.650;2022-10-18T10:27:00;19.70;99.90
9668;DHT22;4872;48.316;10.650;2022-10-18T10:29:48;19.80;99.90
9668;DHT22;4872;48.316;10.650;2022-10-18T10:32:18;19.80;99.90
9668;DHT22;4872;48.316;10.650;2022-10-18T10:34:48;19.90;99.90
9668;DHT22;4872;48.316;10.650;2022-10-18T10:37:27;19.90;99.90
9668;DHT22;4872;48.316;10.650;2022-10-18T10:40:22;20.00;99.90
9668;DHT22;4872;48.316;10.650;2022-10-18T10:43:04;20.00;99.90
9668;DHT22;4872;48.316;10.650;2022-10-18T10:45:35;20.00;99.90
9668;DHT22;4872;48.316;10.650;2022-10-18T10:48:11;20.10;99.90
9668;DHT22;4872;48.316;10.650;2022-10-18T10:50:57;20.20;99.90
9668;DHT22;4872;48.316;10.650;2022-10-18T10:53:31;20.20;99.90
9668;DHT22;4872;48.316;10.650;2022-10-18T10:55:59;20.30;99.90
9668;DHT22;4872;48.316;10.650;2022-10-18T10:58:29;20.40;99.90
9668;DHT22;4872;48.316;10.650;2022-10-18T11:01:17;20.40;99.90
9668;DHT22;4872;48.316;10.650;2022-10-18T11:03:46;20.50;99.90
9668;DHT22;4872;48.316;10.650;2022-10-18T11:06:31;20.50;99.90
9668;DHT22;4872;48.316;10.650;2022-10-18T11:09:03;20.60;99.90
9668;DHT22;4872;48.316;10.650;2022-10-18T11:11:38;20.70;99.90
9668;DHT22;4872;48.316;10.650;2022-10-18T11:14:17;20.70;99.90
9668;DHT22;4872;48.316;10.650;2022-10-18T11:16:52;20.80;99.90
9668;DHT22;4872;48.316;10.650;2022-10-18T11:19:31;20.80;99.90
9668;DHT22;4872;48.316;10.650;2022-10-18T11:22:04;20.90;99.90
9668;DHT22;4872;48.316;10.650;2022-10-18T11:24:33;21.00;99.90
9668;DHT22;4872;48.316;10.650;2022-10-18T11:27:03;21.00;99.90
9668;DHT22;4872;48.316;10.650;2022-10-18T11:30:02;21.20;99.80
9668;DHT22;4872;48.316;10.650;2022-10-18T11:32:39;21.30;99.60
9668;DHT22;4872;48.316;10.650;2022-10-18T11:35:21;21.50;99.50
9668;DHT22;4872;48.316;10.650;2022-10-18T11:38:04;21.70;99.20
9668;DHT22;4872;48.316;10.650;2022-10-18T11:40:43;21.90;98.80
9668;DHT22;4872;48.316;10.650;2022-10-18T11:43:15;22.00;98.40
9668;DHT22;4872;48.316;10.650;2022-10-18T11:45:50;22.20;98.40
9668;DHT22;4872;48.316;10.650;2022-10-18T11:48:33;22.30;98.30
9668;DHT22;4872;48.316;10.650;2022-10-18T11:51:08;22.40;97.40
9668;DHT22;4872;48.316;10.650;2022-10-18T11:53:45;22.50;97.20
9668;DHT22;4872;48.316;10.650;2022-10-18T11:56:19;22.70;97.30
9668;DHT22;4872;48.316;10.650;2022-10-18T11:59:01;22.90;96.80
9668;DHT22;4872;48.316;10.650;2022-10-18T12:01:38;23.10;96.70
9668;DHT22;4872;48.316;10.650;2022-10-18T12:04:10;23.20;96.00
9668;DHT22;4872;48.316;10.650;2022-10-18T12:06:41;23.20;96.50
9668;DHT22;4872;48.316;10.650;2022-10-18T12:09:18;23.10;96.00
9668;DHT22;4872;48.316;10.650;2022-10-18T12:11:51;22.90;95.50
9668;DHT22;4872;48.316;10.650;2022-10-18T12:14:23;22.80;95.90
9668;DHT22;4872;48.316;10.650;2022-10-18T12:16:52;22.40;96.30
9668;DHT22;4872;48.316;10.650;2022-10-18T12:19:22;22.30;96.60
9668;DHT22;4872;48.316;10.650;2022-10-18T12:21:52;22.20;96.70
9668;DHT22;4872;48.316;10.650;2022-10-18T12:24:23;22.30;96.80
9668;DHT22;4872;48.316;10.650;2022-10-18T12:26:56;22.30;97.00
9668;DHT22;4872;48.316;10.650;2022-10-18T12:29:26;22.30;97.00
9668;DHT22;4872;48.316;10.650;2022-10-18T12:31:57;22.30;97.20
9668;DHT22;4872;48.316;10.650;2022-10-18T12:34:34;22.40;97.20
9668;DHT22;4872;48.316;10.650;2022-10-18T12:37:27;22.40;97.80
9668;DHT22;4872;48.316;10.650;2022-10-18T12:39:59;22.50;97.80
9668;DHT22;4872;48.316;10.650;2022-10-18T12:42:30;22.70;97.00
9668;DHT22;4872;48.316;10.650;2022-10-18T12:45:02;22.80;96.90
9668;DHT22;4872;48.316;10.650;2022-10-18T12:47:29;22.70;97.00
9668;DHT22;4872;48.316;10.650;2022-10-18T12:49:57;22.60;96.80
9668;DHT22;4872;48.316;10.650;2022-10-18T12:52:26;22.80;97.00
9668;DHT22;4872;48.316;10.650;2022-10-18T12:55:11;22.90;96.80
9668;DHT22;4872;48.316;10.650;2022-10-18T12:58:25;22.90;96.50
9668;DHT22;4872;48.316;10.650;2022-10-18T13:00:54;23.10;96.10
9668;DHT22;4872;48.316;10.650;2022-10-18T13:09:31;24.20;95.00
9668;DHT22;4872;48.316;10.650;2022-10-18T13:12:41;24.70;94.80
9668;DHT22;4872;48.316;10.650;2022-10-18T13:15:26;25.10;94.00
9668;DHT22;4872;48.316;10.650;2022-10-18T13:17:59;25.20;93.80
9668;DHT22;4872;48.316;10.650;2022-10-18T13:20:36;25.50;93.70
9668;DHT22;4872;48.316;10.650;2022-10-18T13:23:12;25.60;93.10
9668;DHT22;4872;48.316;10.650;2022-10-18T13:25:51;25.60;92.70
9668;DHT22;4872;48.316;10.650;2022-10-18T13:28:26;25.90;92.60
9668;DHT22;4872;48.316;10.650;2022-10-18T13:30:57;25.70;92.30
9668;DHT22;4872;48.316;10.650;2022-10-18T13:33:33;25.50;92.50
9668;DHT22;4872;48.316;10.650;2022-10-18T13:36:03;25.30;92.80
9668;DHT22;4872;48.316;10.650;2022-10-18T13:38:41;24.80;93.10
9668;DHT22;4872;48.316;10.650;2022-10-18T13:41:12;24.40;93.70
9668;DHT22;4872;48.316;10.650;2022-10-18T13:47:08;24.90;93.60
9668;DHT22;4872;48.316;10.650;2022-10-18T13:55:46;25.10;93.00
9668;DHT22;4872;48.316;10.650;2022-10-18T13:58:19;24.60;93.10
9668;DHT22;4872;48.316;10.650;2022-10-18T14:00:59;24.60;93.30
9668;DHT22;4872;48.316;10.650;2022-10-18T14:06:22;25.10;93.00
9668;DHT22;4872;48.316;10.650;2022-10-18T14:08:54;24.60;93.00
9668;DHT22;4872;48.316;10.650;2022-10-18T14:11:29;24.20;94.20
9668;DHT22;4872;48.316;10.650;2022-10-18T14:14:03;23.90;95.20
9668;DHT22;4872;48.316;10.650;2022-10-18T14:16:37;23.50;95.90
9668;DHT22;4872;48.316;10.650;2022-10-18T14:19:14;23.10;97.00
9668;DHT22;4872;48.316;10.650;2022-10-18T14:21:48;22.80;98.00
9668;DHT22;4872;48.316;10.650;2022-10-18T14:24:19;22.50;99.10
9668;DHT22;4872;48.316;10.650;2022-10-18T14:26:47;22.10;99.90
9668;DHT22;4872;48.316;10.650;2022-10-18T14:29:17;21.60;99.90
9668;DHT22;4872;48.316;10.650;2022-10-18T14:31:51;21.30;99.90
9668;DHT22;4872;48.316;10.650;2022-10-18T14:34:18;21.00;99.90
9668;DHT22;4872;48.316;10.650;2022-10-18T14:36:47;20.80;99.90
9668;DHT22;4872;48.316;10.650;2022-10-18T14:39:18;20.60;99.90
9668;DHT22;4872;48.316;10.650;2022-10-18T14:41:50;20.40;99.90
9668;DHT22;4872;48.316;10.650;2022-10-18T14:44:19;20.20;99.90
9668;DHT22;4872;48.316;10.650;2022-10-18T14:46:50;20.10;99.90
9668;DHT22;4872;48.316;10.650;2022-10-18T14:49:18;20.00;99.90
9668;DHT22;4872;48.316;10.650;2022-10-18T14:51:47;19.90;99.90
9668;DHT22;4872;48.316;10.650;2022-10-18T14:54:16;19.80;99.90
9668;DHT22;4872;48.316;10.650;2022-10-18T14:56:43;19.70;99.90
9668;DHT22;4872;48.316;10.650;2022-10-18T14:59:14;19.70;99.90
9668;DHT22;4872;48.316;10.650;2022-10-18T15:01:53;19.80;99.90
9668;DHT22;4872;48.316;10.650;2022-10-18T15:04:20;19.60;99.90
9668;DHT22;4872;48.316;10.650;2022-10-18T15:06:48;19.60;99.90
9668;DHT22;4872;48.316;10.650;2022-10-18T15:09:19;19.60;99.90
9668;DHT22;4872;48.316;10.650;2022-10-18T15:11:47;19.60;99.90
9668;DHT22;4872;48.316;10.650;2022-10-18T15:14:16;19.60;99.90
9668;DHT22;4872;48.316;10.650;2022-10-18T15:16:44;19.60;99.90
9668;DHT22;4872;48.316;10.650;2022-10-18T15:19:27;19.60;99.90
9668;DHT22;4872;48.316;10.650;2022-10-18T15:21:56;19.60;99.90
9668;DHT22;4872;48.316;10.650;2022-10-18T15:24:32;19.60;99.90
9668;DHT22;4872;48.316;10.650;2022-10-18T15:27:09;19.60;99.90
9668;DHT22;4872;48.316;10.650;2022-10-18T15:29:37;19.60;99.90
9668;DHT22;4872;48.316;10.650;2022-10-18T15:32:11;19.50;99.90
9668;DHT22;4872;48.316;10.650;2022-10-18T15:34:40;19.50;99.90
9668;DHT22;4872;48.316;10.650;2022-10-18T15:37:26;19.40;99.90
9668;DHT22;4872;48.316;10.650;2022-10-18T15:43:00;19.30;99.90
9668;DHT22;4872;48.316;10.650;2022-10-18T15:45:34;19.20;99.90
9668;DHT22;4872;48.316;10.650;2022-10-18T15:48:19;19.20;99.90
9668;DHT22;4872;48.316;10.650;2022-10-18T15:50:49;19.10;99.90
9668;DHT22;4872;48.316;10.650;2022-10-18T15:53:42;19.00;99.90
9668;DHT22;4872;48.316;10.650;2022-10-18T15:56:12;18.90;99.90
9668;DHT22;4872;48.316;10.650;2022-10-18T15:58:51;18.80;99.90
9668;DHT22;4872;48.316;10.650;2022-10-18T16:01:21;18.80;99.90
9668;DHT22;4872;48.316;10.650;2022-10-18T16:03:49;18.70;99.90
9668;DHT22;4872;48.316;10.650;2022-10-18T16:06:18;18.60;99.90
9668;DHT22;4872;48.316;10.650;2022-10-18T16:08:46;18.50;99.90
9668;DHT22;4872;48.316;10.650;2022-10-18T16:11:15;18.40;99.90
9668;DHT22;4872;48.316;10.650;2022-10-18T16:13:43;18.20;99.90
9668;DHT22;4872;48.316;10.650;2022-10-18T16:16:12;18.20;99.90
9668;DHT22;4872;48.316;10.650;2022-10-18T16:18:40;18.10;99.90
9668;DHT22;4872;48.316;10.650;2022-10-18T16:21:15;18.10;99.90
9668;DHT22;4872;48.316;10.650;2022-10-18T16:23:43;18.10;99.90
9668;DHT22;4872;48.316;10.650;2022-10-18T16:26:11;18.00;99.90
9668;DHT22;4872;48.316;10.650;2022-10-18T16:28:38;17.90;99.90
9668;DHT22;4872;48.316;10.650;2022-10-18T16:31:06;17.90;99.90
9668;DHT22;4872;48.316;10.650;2022-10-18T16:33:32;17.90;99.90
9668;DHT22;4872;48.316;10.650;2022-10-18T16:36:01;17.80;99.90
9668;DHT22;4872;48.316;10.650;2022-10-18T16:38:30;17.80;99.90
9668;DHT22;4872;48.316;10.650;2022-10-18T16:40:59;17.70;99.90
9668;DHT22;4872;48.316;10.650;2022-10-18T16:43:25;17.70;99.90
9668;DHT22;4872;48.316;10.650;2022-10-18T16:45:53;17.50;99.90
9668;DHT22;4872;48.316;10.650;2022-10-18T16:48:23;17.50;99.90
9668;DHT22;4872;48.316;10.650;2022-10-18T16:50:50;17.50;99.90
9668;DHT22;4872;48.316;10.650;2022-10-18T16:53:17;17.40;99.90
9668;DHT22;4872;48.316;10.650;2022-10-18T16:55:50;17.30;99.90
9668;DHT22;4872;48.316;10.650;2022-10-18T16:58:19;17.30;99.90
9668;DHT22;4872;48.316;10.650;2022-10-18T17:00:47;17.20;99.90
9668;DHT22;4872;48.316;10.650;2022-10-18T17:03:13;17.20;99.90
9668;DHT22;4872;48.316;10.650;2022-10-18T17:05:41;17.20;99.90
9668;DHT22;4872;48.316;10.650;2022-10-18T17:08:15;17.10;99.90
9668;DHT22;4872;48.316;10.650;2022-10-18T17:10:42;17.10;99.90
9668;DHT22;4872;48.316;10.650;2022-10-18T17:13:09;17.00;99.90
9668;DHT22;4872;48.316;10.650;2022-10-18T17:15:37;17.00;99.90
9668;DHT22;4872;48.316;10.650;2022-10-18T17:18:10;17.00;99.90
9668;DHT22;4872;48.316;10.650;2022-10-18T17:20:37;17.00;99.90
9668;DHT22;4872;48.316;10.650;2022-10-18T17:23:04;16.80;99.90
9668;DHT22;4872;48.316;10.650;2022-10-18T17:25:31;16.70;99.90
9668;DHT22;4872;48.316;10.650;2022-10-18T17:27:57;16.80;99.90
9668;DHT22;4872;48.316;10.650;2022-10-18T17:30:24;16.70;99.90
9668;DHT22;4872;48.316;10.650;2022-10-18T17:32:52;16.70;99.90
9668;DHT22;4872;48.316;10.650;2022-10-18T17:35:20;16.50;99.90
9668;DHT22;4872;48.316;10.650;2022-10-18T17:37:47;16.60;99.90
9668;DHT22;4872;48.316;10.650;2022-10-18T17:40:14;16.60;99.90
9668;DHT22;4872;48.316;10.650;2022-10-18T17:42:41;16.60;99.90
9668;DHT22;4872;48.316;10.650;2022-10-18T17:45:09;16.70;99.90
9668;DHT22;4872;48.316;10.650;2022-10-18T17:47:36;16.70;99.90
9668;DHT22;4872;48.316;10.650;2022-10-18T17:50:05;16.60;99.90
9668;DHT22;4872;48.316;10.650;2022-10-18T17:52:32;16.70;99.90
9668;DHT22;4872;48.316;10.650;2022-10-18T17:54:58;16.70;99.90
9668;DHT22;4872;48.316;10.650;2022-10-18T17:57:25;16.70;99.90
9668;DHT22;4872;48.316;10.650;2022-10-18T17:59:52;16.70;99.90
9668;DHT22;4872;48.316;10.650;2022-10-18T18:02:20;16.80;99.90
9668;DHT22;4872;48.316;10.650;2022-10-18T18:04:47;16.70;99.90
9668;DHT22;4872;48.316;10.650;2022-10-18T18:07:15;16.70;99.90
9668;DHT22;4872;48.316;10.650;2022-10-18T18:09:42;16.70;99.90
9668;DHT22;4872;48.316;10.650;2022-10-18T18:12:09;16.80;99.90
9668;DHT22;4872;48.316;10.650;2022-10-18T18:14:35;16.70;99.90
9668;DHT22;4872;48.316;10.650;2022-10-18T18:17:02;16.70;99.90
9668;DHT22;4872;48.316;10.650;2022-10-18T18:19:30;16.60;99.90
9668;DHT22;4872;48.316;10.650;2022-10-18T18:21:57;16.60;99.90
9668;DHT22;4872;48.316;10.650;2022-10-18T18:24:25;16.60;99.90
9668;DHT22;4872;48.316;10.650;2022-10-18T18:26:52;16.60;99.90
9668;DHT22;4872;48.316;10.650;2022-10-18T18:29:20;16.70;99.90
9668;DHT22;4872;48.316;10.650;2022-10-18T18:31:47;16.70;99.90
9668;DHT22;4872;48.316;10.650;2022-10-18T18:34:14;16.50;99.90
9668;DHT22;4872;48.316;10.650;2022-10-18T18:36:42;16.50;99.90
9668;DHT22;4872;48.316;10.650;2022-10-18T18:39:16;16.40;99.90
9668;DHT22;4872;48.316;10.650;2022-10-18T18:41:47;16.50;99.90
9668;DHT22;4872;48.316;10.650;2022-10-18T18:44:14;16.40;99.90
9668;DHT22;4872;48.316;10.650;2022-10-18T18:46:41;16.30;99.90
9668;DHT22;4872;48.316;10.650;2022-10-18T18:49:09;16.40;99.90
9668;DHT22;4872;48.316;10.650;2022-10-18T18:51:36;16.30;99.90
9668;DHT22;4872;48.316;10.650;2022-10-18T18:54:05;16.30;99.90
9668;DHT22;4872;48.316;10.650;2022-10-18T18:56:32;16.40;99.90
9668;DHT22;4872;48.316;10.650;2022-10-18T18:59:01;16.40;99.90
9668;DHT22;4872;48.316;10.650;2022-10-18T19:01:29;16.40;99.90
9668;DHT22;4872;48.316;10.650;2022-10-18T19:03:57;16.30;99.90
9668;DHT22;4872;48.316;10.650;2022-10-18T19:06:26;16.30;99.90
9668;DHT22;4872;48.316;10.650;2022-10-18T19:08:54;16.20;99.90
9668;DHT22;4872;48.316;10.650;2022-10-18T19:11:26;16.30;99.90
9668;DHT22;4872;48.316;10.650;2022-10-18T19:13:53;16.20;99.90
9668;DHT22;4872;48.316;10.650;2022-10-18T19:16:23;16.20;99.90
9668;DHT22;4872;48.316;10.650;2022-10-18T19:18:53;16.30;99.90
9668;DHT22;4872;48.316;10.650;2022-10-18T19:21:20;16.30;99.90
9668;DHT22;4872;48.316;10.650;2022-10-18T19:23:47;16.20;99.90
9668;DHT22;4872;48.316;10.650;2022-10-18T19:26:23;16.20;99.90
9668;DHT22;4872;48.316;10.650;2022-10-18T19:28:50;16.10;99.90
9668;DHT22;4872;48.316;10.650;2022-10-18T19:31:17;16.10;99.90
9668;DHT22;4872;48.316;10.650;2022-10-18T19:33:46;16.20;99.90
9668;DHT22;4872;48.316;10.650;2022-10-18T19:36:13;16.20;99.90
9668;DHT22;4872;48.316;10.650;2022-10-18T19:38:39;16.10;99.90
9668;DHT22;4872;48.316;10.650;2022-10-18T19:41:06;16.10;99.90
9668;DHT22;4872;48.316;10.650;2022-10-18T19:43:33;16.20;99.90
9668;DHT22;4872;48.316;10.650;2022-10-18T19:46:01;16.00;99.90
9668;DHT22;4872;48.316;10.650;2022-10-18T19:48:28;16.00;99.90
9668;DHT22;4872;48.316;10.650;2022-10-18T19:50:56;16.00;99.90
9668;DHT22;4872;48.316;10.650;2022-10-18T19:53:23;16.10;99.90
9668;DHT22;4872;48.316;10.650;2022-10-18T19:55:56;15.90;99.90
9668;DHT22;4872;48.316;10.650;2022-10-18T19:58:23;15.90;99.90
9668;DHT22;4872;48.316;10.650;2022-10-18T20:00:51;15.90;99.90
9668;DHT22;4872;48.316;10.650;2022-10-18T20:03:18;15.80;99.90
9668;DHT22;4872;48.316;10.650;2022-10-18T20:05:45;15.80;99.90
9668;DHT22;4872;48.316;10.650;2022-10-18T20:08:13;15.80;99.90
9668;DHT22;4872;48.316;10.650;2022-10-18T20:10:40;15.80;99.90
9668;DHT22;4872;48.316;10.650;2022-10-18T20:13:06;15.70;99.90
9668;DHT22;4872;48.316;10.650;2022-10-18T20:15:33;15.60;99.90
9668;DHT22;4872;48.316;10.650;2022-10-18T20:18:00;15.70;99.90
9668;DHT22;4872;48.316;10.650;2022-10-18T20:20:27;15.70;99.90
9668;DHT22;4872;48.316;10.650;2022-10-18T20:22:54;15.70;99.90
9668;DHT22;4872;48.316;10.650;2022-10-18T20:25:22;15.70;99.90
9668;DHT22;4872;48.316;10.650;2022-10-18T20:27:48;15.60;99.90
9668;DHT22;4872;48.316;10.650;2022-10-18T20:30:16;15.70;99.90
9668;DHT22;4872;48.316;10.650;2022-10-18T20:32:42;15.70;99.90
9668;DHT22;4872;48.316;10.650;2022-10-18T20:35:09;15.70;99.90
9668;DHT22;4872;48.316;10.650;2022-10-18T20:37:36;15.70;99.90
9668;DHT22;4872;48.316;10.650;2022-10-18T20:40:03;15.70;99.90